Meteorológiai információk azoknak akik tudják olvasni.

METAR = LHBP 171630Z 07008KT CAVOK 28/13 Q1017 NOSIG

9 órás TAF = TAF TAF LHBP 242330Z 2423/2424 30008KT CAVOK BECMG 2506/2509 24010KT OVC030 TEMPO 2509/2515 24015G25KT 8000 -RA BKN013 OVC025 BECMG 2515/2518 30008KT CAVOK

24 órás TAF = TAF TAF LHBP 171115Z 1712/1812 09008KT CAVOK TEMPO 1714/1720 FEW060TCU BECMG 1718/1720 VRB03KT BECMG 1806/1809 10006KT

ÁLLOMÁS.................... LHBP
ÉSZLELÉS................... Thu Jun 17, 18:30 CEST
MOST....................... Thu Jun 17, 18:57 CEST
IDŐ........................ 27 perccel ezelőtt
SZÉL....................... KÉK irányból 8 csomó
LÁTÁSTÁVOLSÁG.............. 10 km vagy több
FELHŐZET................... jelentős felhőzet nincs
HŐMÉRSÉKLET................ 82°F (28°C)
HARMATPONT................. 55°F (13°C)
PÁRATARTALOM............... 40%
HEAT INDEX................. 81°F (27°C)
LÉGNYOMÁS.................. 1017 hPa (30.03 in Hg)

További információ LHBP állomásról

Meteor információ kérése:        állomásról.    

 

www.tothgeza.hu

 

English version
Copyright © 2003-2021 Tóth Géza Minden jog fenntartva.